createdAt,value
2022-09-30T00:01:58.081Z,6.90
2022-09-30T00:04:25.672Z,7.00
2022-09-30T00:07:03.329Z,7.00
2022-09-30T00:09:30.179Z,7.00
2022-09-30T00:11:57.298Z,7.00
2022-09-30T00:14:24.303Z,7.00
2022-09-30T00:17:00.425Z,7.00
2022-09-30T00:19:30.364Z,6.90
2022-09-30T00:22:06.577Z,6.90
2022-09-30T00:24:36.071Z,6.90
2022-09-30T00:27:09.027Z,6.90
2022-09-30T00:29:35.811Z,7.00
2022-09-30T00:32:14.558Z,6.80
2022-09-30T00:34:41.400Z,6.90
2022-09-30T00:37:22.855Z,6.80
2022-09-30T00:39:49.969Z,6.80
2022-09-30T00:42:19.628Z,6.80
2022-09-30T00:44:57.088Z,6.90
2022-09-30T00:50:49.687Z,6.80
2022-09-30T00:53:30.506Z,6.80
2022-09-30T00:56:21.328Z,6.80
2022-09-30T00:59:27.582Z,6.80
2022-09-30T01:01:53.637Z,6.70
2022-09-30T01:04:26.280Z,6.70
2022-09-30T01:06:53.686Z,6.70
2022-09-30T01:09:27.136Z,6.80
2022-09-30T01:12:28.976Z,6.70
2022-09-30T01:15:08.426Z,6.70
2022-09-30T01:21:14.684Z,6.70
2022-09-30T01:24:18.982Z,6.80
2022-09-30T01:27:15.440Z,6.70
2022-09-30T01:30:18.713Z,6.80
2022-09-30T01:33:04.427Z,6.70
2022-09-30T01:35:54.453Z,6.70
2022-09-30T01:38:53.385Z,6.80
2022-09-30T01:41:42.441Z,6.70
2022-09-30T01:48:18.654Z,6.70
2022-09-30T01:51:08.881Z,6.70
2022-09-30T01:54:19.400Z,6.70
2022-09-30T01:57:25.035Z,6.60
2022-09-30T01:59:59.130Z,6.50
2022-09-30T02:05:30.206Z,6.50
2022-09-30T02:08:37.858Z,6.60
2022-09-30T02:11:35.520Z,6.60
2022-09-30T02:14:30.083Z,6.50
2022-09-30T02:17:09.657Z,6.50
2022-09-30T02:19:45.079Z,6.40
2022-09-30T02:22:43.178Z,6.30
2022-09-30T02:25:26.328Z,6.30
2022-09-30T02:27:59.939Z,6.30
2022-09-30T02:33:19.865Z,6.20
2022-09-30T02:35:57.879Z,6.10
2022-09-30T02:38:43.839Z,6.10
2022-09-30T02:41:32.619Z,6.00
2022-09-30T02:44:02.450Z,5.90
2022-09-30T02:47:23.718Z,5.90
2022-09-30T02:50:18.351Z,5.90
2022-09-30T02:53:22.119Z,5.80
2022-09-30T02:56:10.294Z,5.80
2022-09-30T02:58:46.696Z,5.80
2022-09-30T03:01:16.307Z,5.70
2022-09-30T03:03:49.120Z,5.70
2022-09-30T03:06:16.893Z,5.60
2022-09-30T03:08:44.347Z,5.70
2022-09-30T03:14:24.291Z,5.70
2022-09-30T03:17:10.511Z,5.60
2022-09-30T03:20:05.093Z,5.60
2022-09-30T03:22:36.781Z,5.50
2022-09-30T03:25:09.779Z,5.60
2022-09-30T03:27:45.332Z,5.50
2022-09-30T03:30:21.032Z,5.40
2022-09-30T03:33:11.569Z,5.40
2022-09-30T03:36:14.985Z,5.40
2022-09-30T03:39:04.104Z,5.40
2022-09-30T03:41:42.372Z,5.40
2022-09-30T03:44:23.405Z,5.50
2022-09-30T03:47:01.285Z,5.50
2022-09-30T03:49:36.041Z,5.40
2022-09-30T03:52:13.714Z,5.40
2022-09-30T03:55:04.369Z,5.50
2022-09-30T03:57:34.204Z,5.50
2022-09-30T04:00:17.049Z,5.50
2022-09-30T04:05:44.100Z,5.50
2022-09-30T04:08:11.347Z,5.50
2022-09-30T04:10:43.983Z,5.40
2022-09-30T04:13:19.525Z,5.40
2022-09-30T04:15:53.963Z,5.50
2022-09-30T04:18:27.793Z,5.40
2022-09-30T04:21:08.805Z,5.30
2022-09-30T04:24:08.364Z,5.40
2022-09-30T04:26:37.989Z,5.30
2022-09-30T04:29:05.134Z,5.40
2022-09-30T04:38:08.207Z,5.40
2022-09-30T04:40:50.725Z,5.40
2022-09-30T04:43:38.585Z,5.40
2022-09-30T04:46:23.856Z,5.30
2022-09-30T04:51:59.468Z,5.30
2022-09-30T04:54:26.279Z,5.40
2022-09-30T04:56:53.031Z,5.50
2022-09-30T04:59:20.020Z,5.50
2022-09-30T05:02:07.490Z,5.50
2022-09-30T05:05:39.202Z,5.60
2022-09-30T05:11:28.648Z,5.70
2022-09-30T05:20:22.221Z,5.70
2022-09-30T05:23:00.169Z,5.80
2022-09-30T05:25:29.982Z,5.70
2022-09-30T05:27:56.757Z,5.80
2022-09-30T05:30:23.655Z,5.80
2022-09-30T05:33:00.375Z,5.80
2022-09-30T05:35:41.296Z,5.80
2022-09-30T05:38:09.247Z,5.80
2022-09-30T05:40:41.605Z,5.80
2022-09-30T05:43:08.528Z,5.80
2022-09-30T05:45:35.521Z,5.80
2022-09-30T05:48:02.902Z,5.80
2022-09-30T05:50:29.745Z,5.80
2022-09-30T05:53:00.146Z,5.70
2022-09-30T05:55:27.136Z,5.80
2022-09-30T05:57:53.957Z,5.90
2022-09-30T06:00:20.891Z,5.80
2022-09-30T06:02:52.117Z,5.90
2022-09-30T06:05:19.347Z,5.90
2022-09-30T06:07:46.154Z,5.80
2022-09-30T06:10:12.996Z,5.90
2022-09-30T06:12:40.129Z,5.80
2022-09-30T06:15:10.432Z,5.90
2022-09-30T06:17:43.484Z,5.80
2022-09-30T06:20:22.603Z,5.90
2022-09-30T06:23:17.076Z,5.90
2022-09-30T06:25:44.689Z,5.80
2022-09-30T06:28:11.524Z,5.90
2022-09-30T06:30:38.318Z,6.00
2022-09-30T06:33:05.297Z,6.10
2022-09-30T06:38:17.844Z,6.00
2022-09-30T06:40:49.801Z,6.10
2022-09-30T06:43:19.995Z,6.10
2022-09-30T06:45:48.758Z,6.10
2022-09-30T06:48:19.445Z,6.20
2022-09-30T06:51:01.421Z,6.30
2022-09-30T06:53:29.721Z,6.50
2022-09-30T06:56:06.612Z,6.60
2022-09-30T06:58:33.468Z,6.70
2022-09-30T07:01:03.779Z,6.90
2022-09-30T07:03:34.152Z,7.10
2022-09-30T07:06:05.235Z,7.40
2022-09-30T07:08:33.987Z,7.60
2022-09-30T07:11:04.313Z,7.80
2022-09-30T07:13:33.315Z,8.10
2022-09-30T07:16:00.416Z,8.30
2022-09-30T07:18:27.821Z,8.30
2022-09-30T07:20:56.540Z,8.30
2022-09-30T07:23:27.160Z,8.40
2022-09-30T07:25:57.594Z,8.60
2022-09-30T07:28:32.088Z,8.70
2022-09-30T07:31:33.517Z,8.80
2022-09-30T07:34:02.103Z,8.80
2022-09-30T07:36:33.527Z,8.90
2022-09-30T07:39:07.632Z,8.90
2022-09-30T07:41:37.852Z,9.10
2022-09-30T07:44:09.790Z,9.20
2022-09-30T07:46:39.183Z,9.10
2022-09-30T07:49:09.332Z,9.30
2022-09-30T07:51:39.373Z,9.40
2022-09-30T07:54:12.331Z,9.50
2022-09-30T08:02:27.185Z,9.70
2022-09-30T08:04:54.018Z,9.80
2022-09-30T08:07:20.854Z,9.80
2022-09-30T08:09:48.380Z,9.90
2022-09-30T08:12:15.308Z,10.10
2022-09-30T08:14:47.958Z,10.20
2022-09-30T08:17:15.022Z,10.40
2022-09-30T08:19:45.146Z,10.50
2022-09-30T08:22:28.180Z,10.60
2022-09-30T08:24:55.259Z,10.70
2022-09-30T08:27:22.269Z,10.80
2022-09-30T08:29:55.160Z,10.90
2022-09-30T08:32:23.706Z,10.90
2022-09-30T08:35:00.584Z,11.20
2022-09-30T08:37:27.537Z,11.40
2022-09-30T08:39:54.766Z,11.60
2022-09-30T08:42:37.678Z,11.60
2022-09-30T08:45:40.206Z,11.70
2022-09-30T08:48:28.872Z,11.80
2022-09-30T08:51:13.331Z,11.90
2022-09-30T08:53:45.843Z,12.00
2022-09-30T08:56:24.732Z,11.90
2022-09-30T08:58:57.861Z,12.00
2022-09-30T09:01:36.206Z,12.00
2022-09-30T09:04:05.682Z,12.10
2022-09-30T09:07:26.079Z,12.20
2022-09-30T09:10:14.279Z,12.20
2022-09-30T09:13:14.814Z,12.30
2022-09-30T09:16:01.565Z,12.40
2022-09-30T09:18:54.440Z,12.40
2022-09-30T09:21:38.561Z,12.40
2022-09-30T09:24:38.377Z,12.50
2022-09-30T09:27:36.578Z,12.60
2022-09-30T09:30:20.207Z,12.80
2022-09-30T09:32:55.380Z,12.80
2022-09-30T09:35:50.129Z,12.90
2022-09-30T09:38:40.278Z,13.00
2022-09-30T09:41:10.127Z,13.10
2022-09-30T09:43:58.528Z,13.00
2022-09-30T09:46:50.982Z,13.00
2022-09-30T09:49:24.252Z,13.00
2022-09-30T10:00:49.207Z,13.20
2022-09-30T10:03:23.486Z,13.20
2022-09-30T10:06:06.330Z,13.20
2022-09-30T10:08:51.989Z,13.30
2022-09-30T10:11:23.945Z,13.30
2022-09-30T10:13:52.945Z,13.30
2022-09-30T10:16:37.724Z,13.40
2022-09-30T10:19:18.039Z,13.60
2022-09-30T10:22:07.967Z,13.60
2022-09-30T10:24:36.776Z,13.60
2022-09-30T10:27:04.523Z,13.70
2022-09-30T10:29:36.158Z,13.70
2022-09-30T10:32:09.871Z,13.70
2022-09-30T10:34:40.211Z,13.80
2022-09-30T10:37:15.744Z,13.80
2022-09-30T10:39:44.795Z,13.90
2022-09-30T10:42:27.266Z,13.90
2022-09-30T10:45:02.291Z,14.00
2022-09-30T10:47:35.706Z,14.10
2022-09-30T10:50:17.182Z,14.20
2022-09-30T10:53:04.457Z,14.30
2022-09-30T10:55:32.528Z,14.40
2022-09-30T10:58:23.178Z,14.50
2022-09-30T11:01:00.942Z,14.60
2022-09-30T11:03:39.432Z,14.70
2022-09-30T11:06:09.475Z,14.70
2022-09-30T11:08:48.348Z,14.50
2022-09-30T11:11:20.784Z,14.50
2022-09-30T11:14:25.213Z,14.50
2022-09-30T11:17:04.101Z,14.60
2022-09-30T11:20:09.491Z,14.50
2022-09-30T11:22:59.314Z,14.50
2022-09-30T11:26:10.399Z,14.40
2022-09-30T11:28:59.111Z,14.30
2022-09-30T11:31:51.015Z,14.40
2022-09-30T11:34:48.682Z,14.50
2022-09-30T11:37:26.508Z,14.60
2022-09-30T11:40:12.106Z,14.50
2022-09-30T11:42:55.316Z,14.50
2022-09-30T11:45:55.585Z,14.60
2022-09-30T11:51:58.210Z,14.40
2022-09-30T11:54:40.040Z,14.40
2022-09-30T11:57:48.015Z,14.30
2022-09-30T12:00:29.052Z,14.20
2022-09-30T12:03:10.170Z,14.20
2022-09-30T12:05:41.303Z,14.10
2022-09-30T12:08:42.816Z,14.00
2022-09-30T12:11:13.681Z,14.10
2022-09-30T12:13:48.089Z,14.00
2022-09-30T12:16:21.931Z,14.10
2022-09-30T12:19:14.874Z,14.10
2022-09-30T12:22:05.799Z,14.00
2022-09-30T12:24:50.827Z,14.00
2022-09-30T12:27:48.180Z,14.10
2022-09-30T12:30:19.245Z,14.00
2022-09-30T12:33:07.153Z,14.00
2022-09-30T12:36:15.016Z,14.10
2022-09-30T12:39:02.371Z,14.10
2022-09-30T12:41:42.563Z,14.20
2022-09-30T12:44:36.061Z,14.20
2022-09-30T12:47:26.781Z,14.20
2022-09-30T12:49:58.162Z,14.10
2022-09-30T12:52:26.311Z,14.10
2022-09-30T12:55:37.924Z,14.30
2022-09-30T12:58:05.526Z,14.40
2022-09-30T13:00:37.811Z,14.40
2022-09-30T13:03:11.364Z,14.30
2022-09-30T13:05:50.611Z,14.40
2022-09-30T13:08:24.951Z,14.40
2022-09-30T13:11:06.352Z,14.40
2022-09-30T13:13:37.023Z,14.50
2022-09-30T13:16:06.527Z,14.50
2022-09-30T13:18:33.543Z,14.50
2022-09-30T13:21:07.981Z,14.50
2022-09-30T13:23:46.684Z,14.30
2022-09-30T13:26:23.368Z,14.20
2022-09-30T13:28:52.155Z,14.20
2022-09-30T13:31:21.255Z,14.20
2022-09-30T13:34:11.270Z,14.10
2022-09-30T13:36:44.472Z,14.10
2022-09-30T13:39:27.861Z,14.10
2022-09-30T13:42:00.860Z,14.20
2022-09-30T13:45:08.292Z,14.20
2022-09-30T13:47:44.013Z,14.20
2022-09-30T13:50:16.255Z,14.30
2022-09-30T13:52:45.934Z,14.10
2022-09-30T13:55:19.948Z,14.00
2022-09-30T13:58:12.671Z,13.90
2022-09-30T14:00:48.786Z,13.90
2022-09-30T14:03:44.854Z,13.90
2022-09-30T14:06:37.600Z,13.80
2022-09-30T14:09:23.369Z,13.70
2022-09-30T14:11:58.858Z,13.70
2022-09-30T14:14:43.477Z,13.70
2022-09-30T14:17:37.415Z,13.70
2022-09-30T14:20:23.031Z,13.70
2022-09-30T14:22:50.016Z,13.70
2022-09-30T14:25:19.194Z,13.60
2022-09-30T14:27:57.921Z,13.60
2022-09-30T14:30:26.575Z,13.60
2022-09-30T14:32:56.799Z,13.50
2022-09-30T14:35:29.711Z,13.50
2022-09-30T14:38:07.500Z,13.40
2022-09-30T14:40:38.586Z,13.40
2022-09-30T14:43:08.339Z,13.40
2022-09-30T14:45:42.243Z,13.40
2022-09-30T14:48:17.581Z,13.40
2022-09-30T14:50:50.937Z,13.30
2022-09-30T14:54:03.571Z,13.30
2022-09-30T14:56:32.555Z,13.20
2022-09-30T14:59:00.938Z,13.20
2022-09-30T15:01:35.174Z,13.20
2022-09-30T15:04:10.927Z,13.20
2022-09-30T15:06:41.214Z,13.10
2022-09-30T15:09:16.235Z,13.20
2022-09-30T15:11:43.296Z,13.10
2022-09-30T15:14:21.917Z,13.10
2022-09-30T15:16:50.273Z,13.00
2022-09-30T15:19:34.382Z,13.00
2022-09-30T15:22:06.782Z,12.90
2022-09-30T15:24:36.543Z,12.90
2022-09-30T15:27:14.832Z,13.00
2022-09-30T15:33:44.625Z,13.00
2022-09-30T15:36:17.279Z,13.00
2022-09-30T15:39:02.117Z,12.90
2022-09-30T15:41:29.140Z,12.90
2022-09-30T15:44:00.373Z,12.90
2022-09-30T15:46:30.791Z,12.90
2022-09-30T15:49:03.206Z,12.90
2022-09-30T15:51:34.640Z,12.80
2022-09-30T15:54:27.753Z,12.80
2022-09-30T15:56:54.739Z,12.80
2022-09-30T15:59:25.794Z,12.70
2022-09-30T16:01:56.635Z,12.70
2022-09-30T16:04:26.354Z,12.70
2022-09-30T16:07:11.857Z,12.60
2022-09-30T16:09:52.581Z,12.50
2022-09-30T16:15:16.362Z,12.50
2022-09-30T16:17:58.036Z,12.50
2022-09-30T16:23:30.739Z,12.50
2022-09-30T16:26:16.297Z,12.50
2022-09-30T16:28:43.757Z,12.40
2022-09-30T16:31:11.349Z,12.40
2022-09-30T16:33:43.626Z,12.40
2022-09-30T16:36:12.548Z,12.40
2022-09-30T16:38:39.480Z,12.40
2022-09-30T16:41:12.817Z,12.40
2022-09-30T16:43:46.175Z,12.30
2022-09-30T16:46:55.613Z,12.40
2022-09-30T16:49:22.514Z,12.40
2022-09-30T16:51:54.399Z,12.40
2022-09-30T16:54:21.197Z,12.40
2022-09-30T16:56:49.320Z,12.30
2022-09-30T16:59:18.110Z,12.40
2022-09-30T17:01:45.370Z,12.30
2022-09-30T17:04:15.235Z,12.30
2022-09-30T17:06:44.221Z,12.30
2022-09-30T17:09:14.299Z,12.30
2022-09-30T17:11:42.066Z,12.30
2022-09-30T17:14:12.650Z,12.30
2022-09-30T17:16:40.343Z,12.20
2022-09-30T17:19:07.432Z,12.20
2022-09-30T17:21:34.573Z,12.30
2022-09-30T17:24:01.658Z,12.10
2022-09-30T17:26:39.358Z,12.10
2022-09-30T17:29:33.103Z,12.00
2022-09-30T17:32:11.739Z,12.10
2022-09-30T17:34:39.316Z,12.10
2022-09-30T17:37:19.081Z,12.10
2022-09-30T17:39:46.219Z,12.10
2022-09-30T17:42:40.622Z,12.10
2022-09-30T17:45:11.942Z,12.00
2022-09-30T17:47:41.477Z,11.90
2022-09-30T17:50:09.287Z,12.00
2022-09-30T17:52:36.401Z,12.00
2022-09-30T17:55:03.866Z,12.10
2022-09-30T17:57:40.264Z,12.00
2022-09-30T18:00:08.179Z,12.00
2022-09-30T18:02:35.339Z,12.00
2022-09-30T18:05:02.576Z,12.00
2022-09-30T18:07:37.337Z,11.90
2022-09-30T18:10:11.761Z,12.00
2022-09-30T18:12:39.250Z,12.00
2022-09-30T18:15:14.389Z,12.00
2022-09-30T18:17:41.649Z,11.90
2022-09-30T18:20:13.377Z,11.90
2022-09-30T18:22:43.354Z,12.00
2022-09-30T18:25:23.706Z,11.80
2022-09-30T18:27:56.565Z,11.90
2022-09-30T18:30:25.838Z,11.90
2022-09-30T18:32:54.669Z,11.80
2022-09-30T18:35:24.912Z,11.80
2022-09-30T18:37:53.158Z,11.90
2022-09-30T18:40:22.613Z,11.80
2022-09-30T18:42:56.051Z,11.90
2022-09-30T18:45:24.580Z,11.90
2022-09-30T18:48:01.388Z,11.90
2022-09-30T18:50:30.189Z,11.90
2022-09-30T18:52:58.204Z,11.80
2022-09-30T18:55:25.884Z,11.90
2022-09-30T18:57:57.494Z,11.90
2022-09-30T19:00:25.386Z,11.90
2022-09-30T19:02:55.490Z,11.90
2022-09-30T19:05:22.611Z,11.80
2022-09-30T19:11:12.008Z,11.90
2022-09-30T19:17:16.588Z,11.80
2022-09-30T19:19:56.015Z,11.90
2022-09-30T19:22:25.232Z,11.90
2022-09-30T19:25:33.862Z,11.90
2022-09-30T19:28:49.473Z,11.90
2022-09-30T19:31:20.247Z,11.90
2022-09-30T19:33:56.031Z,11.80
2022-09-30T19:36:46.730Z,11.80
2022-09-30T19:39:23.474Z,11.80
2022-09-30T19:41:51.331Z,11.80
2022-09-30T19:44:20.413Z,11.90
2022-09-30T19:47:00.057Z,11.80
2022-09-30T19:49:27.599Z,11.80
2022-09-30T19:51:54.786Z,11.80
2022-09-30T19:54:34.779Z,11.80
2022-09-30T19:57:06.132Z,11.80
2022-09-30T19:59:34.017Z,11.80
2022-09-30T20:02:01.657Z,11.80
2022-09-30T20:04:31.564Z,11.70
2022-09-30T20:07:00.115Z,11.80
2022-09-30T20:09:27.288Z,11.80
2022-09-30T20:11:56.171Z,11.80
2022-09-30T20:14:41.532Z,11.90
2022-09-30T20:17:12.838Z,11.80
2022-09-30T20:19:39.962Z,11.80
2022-09-30T20:22:06.855Z,11.80
2022-09-30T20:24:34.239Z,11.80
2022-09-30T20:27:10.776Z,11.80
2022-09-30T20:29:37.932Z,11.80
2022-09-30T20:32:04.898Z,11.80
2022-09-30T20:34:36.670Z,11.80
2022-09-30T20:37:17.267Z,11.80
2022-09-30T20:39:44.618Z,11.80
2022-09-30T20:42:11.773Z,11.80
2022-09-30T20:44:39.246Z,11.80
2022-09-30T20:47:06.259Z,11.90
2022-09-30T20:49:35.401Z,11.80
2022-09-30T20:52:06.077Z,11.90
2022-09-30T20:54:35.481Z,11.80
2022-09-30T20:57:07.321Z,11.80
2022-09-30T20:59:50.588Z,11.80
2022-09-30T21:02:28.150Z,11.90
2022-09-30T21:05:05.345Z,11.90
2022-09-30T21:07:35.342Z,11.80
2022-09-30T21:10:02.129Z,11.80
2022-09-30T21:12:31.340Z,11.80
2022-09-30T21:14:58.257Z,11.80
2022-09-30T21:17:25.235Z,11.80
2022-09-30T21:19:52.089Z,11.80
2022-09-30T21:22:18.891Z,11.80
2022-09-30T21:24:47.749Z,11.80
2022-09-30T21:27:14.592Z,11.80
2022-09-30T21:29:41.367Z,11.80
2022-09-30T21:32:08.186Z,11.80
2022-09-30T21:34:35.189Z,11.70
2022-09-30T21:37:01.982Z,11.80
2022-09-30T21:39:29.281Z,11.70
2022-09-30T21:41:56.267Z,11.70
2022-09-30T21:44:30.154Z,11.70
2022-09-30T21:46:57.269Z,11.70
2022-09-30T21:49:24.526Z,11.70
2022-09-30T21:51:54.418Z,11.70
2022-09-30T21:54:21.222Z,11.70
2022-09-30T21:56:54.526Z,11.70
2022-09-30T21:59:21.469Z,11.70
2022-09-30T22:01:48.751Z,11.70
2022-09-30T22:04:15.611Z,11.70
2022-09-30T22:06:42.396Z,11.70
2022-09-30T22:09:09.230Z,11.70
2022-09-30T22:11:37.018Z,11.60
2022-09-30T22:14:04.719Z,11.60
2022-09-30T22:16:40.328Z,11.60
2022-09-30T22:19:17.980Z,11.60
2022-09-30T22:21:44.865Z,11.70
2022-09-30T22:24:12.155Z,11.70
2022-09-30T22:26:41.989Z,11.60
2022-09-30T22:29:12.236Z,11.60
2022-09-30T22:31:39.909Z,11.60
2022-09-30T22:34:26.503Z,11.60
2022-09-30T22:37:12.134Z,11.60
2022-09-30T22:39:38.924Z,11.60
2022-09-30T22:42:07.336Z,11.60
2022-09-30T22:44:35.811Z,11.60
2022-09-30T22:47:03.015Z,11.50
2022-09-30T22:49:33.620Z,11.50
2022-09-30T22:52:02.253Z,11.50
2022-09-30T22:54:31.741Z,11.50
2022-09-30T22:57:01.519Z,11.60
2022-09-30T22:59:29.587Z,11.60
2022-09-30T23:01:57.079Z,11.60
2022-09-30T23:04:26.069Z,11.60
2022-09-30T23:06:55.345Z,11.60
2022-09-30T23:09:22.632Z,11.60
2022-09-30T23:11:53.307Z,11.60
2022-09-30T23:14:21.749Z,11.60
2022-09-30T23:16:49.447Z,11.60
2022-09-30T23:19:16.409Z,11.60
2022-09-30T23:21:43.908Z,11.60
2022-09-30T23:24:11.927Z,11.50
2022-09-30T23:26:39.673Z,11.50
2022-09-30T23:29:10.352Z,11.40
2022-09-30T23:31:37.858Z,11.30
2022-09-30T23:34:05.332Z,11.30
2022-09-30T23:36:35.036Z,11.30
2022-09-30T23:39:12.407Z,11.30
2022-09-30T23:41:39.329Z,11.30
2022-09-30T23:44:06.415Z,11.30
2022-09-30T23:46:33.362Z,11.20
2022-09-30T23:49:00.187Z,11.30
2022-09-30T23:51:27.240Z,11.20
2022-09-30T23:53:54.066Z,11.20
2022-09-30T23:56:20.874Z,11.20
2022-09-30T23:58:48.274Z,11.20
